sensor_id;sensor_type;location;lat;lon;timestamp;temperature;humidity
2042;DHT22;1026;51.460;7.252;2023-09-30T00:00:17;16.80;98.40
2042;DHT22;1026;51.460;7.252;2023-09-30T00:02:44;16.80;98.40
2042;DHT22;1026;51.460;7.252;2023-09-30T00:05:17;16.80;98.50
2042;DHT22;1026;51.460;7.252;2023-09-30T00:07:46;16.80;98.50
2042;DHT22;1026;51.460;7.252;2023-09-30T00:10:13;16.80;98.50
2042;DHT22;1026;51.460;7.252;2023-09-30T00:12:48;16.70;98.40
2042;DHT22;1026;51.460;7.252;2023-09-30T00:15:14;16.70;98.40
2042;DHT22;1026;51.460;7.252;2023-09-30T00:18:02;16.70;98.40
2042;DHT22;1026;51.460;7.252;2023-09-30T00:20:29;16.70;98.50
2042;DHT22;1026;51.460;7.252;2023-09-30T00:23:02;16.70;98.40
2042;DHT22;1026;51.460;7.252;2023-09-30T00:25:29;16.70;98.50
2042;DHT22;1026;51.460;7.252;2023-09-30T00:27:56;16.70;98.40
2042;DHT22;1026;51.460;7.252;2023-09-30T00:30:30;16.60;98.40
2042;DHT22;1026;51.460;7.252;2023-09-30T00:32:57;16.70;98.50
2042;DHT22;1026;51.460;7.252;2023-09-30T00:35:24;16.60;98.40
2042;DHT22;1026;51.460;7.252;2023-09-30T00:37:58;16.70;98.50
2042;DHT22;1026;51.460;7.252;2023-09-30T00:40:24;16.60;98.40
2042;DHT22;1026;51.460;7.252;2023-09-30T00:42:58;16.60;98.50
2042;DHT22;1026;51.460;7.252;2023-09-30T00:45:25;16.60;98.50
2042;DHT22;1026;51.460;7.252;2023-09-30T00:47:52;16.50;98.40
2042;DHT22;1026;51.460;7.252;2023-09-30T00:50:25;16.50;98.40
2042;DHT22;1026;51.460;7.252;2023-09-30T00:52:53;16.50;98.40
2042;DHT22;1026;51.460;7.252;2023-09-30T00:55:21;16.50;98.50
2042;DHT22;1026;51.460;7.252;2023-09-30T00:57:55;16.50;98.50
2042;DHT22;1026;51.460;7.252;2023-09-30T01:00:29;16.50;98.50
2042;DHT22;1026;51.460;7.252;2023-09-30T01:02:56;16.50;98.50
2042;DHT22;1026;51.460;7.252;2023-09-30T01:05:23;16.50;98.50
2042;DHT22;1026;51.460;7.252;2023-09-30T01:07:57;16.50;98.50
2042;DHT22;1026;51.460;7.252;2023-09-30T01:10:24;16.50;98.50
2042;DHT22;1026;51.460;7.252;2023-09-30T01:12:57;16.40;98.40
2042;DHT22;1026;51.460;7.252;2023-09-30T01:15:24;16.50;98.50
2042;DHT22;1026;51.460;7.252;2023-09-30T01:17:57;16.40;98.40
2042;DHT22;1026;51.460;7.252;2023-09-30T01:20:30;16.40;98.40
2042;DHT22;1026;51.460;7.252;2023-09-30T01:23:04;16.40;98.40
2042;DHT22;1026;51.460;7.252;2023-09-30T01:25:31;16.40;98.40
2042;DHT22;1026;51.460;7.252;2023-09-30T01:28:11;16.40;98.40
2042;DHT22;1026;51.460;7.252;2023-09-30T01:30:38;16.40;98.80
2042;DHT22;1026;51.460;7.252;2023-09-30T01:33:05;16.40;98.50
2042;DHT22;1026;51.460;7.252;2023-09-30T01:35:41;16.30;98.40
2042;DHT22;1026;51.460;7.252;2023-09-30T01:38:08;16.30;98.40
2042;DHT22;1026;51.460;7.252;2023-09-30T01:40:46;16.30;98.40
2042;DHT22;1026;51.460;7.252;2023-09-30T01:43:20;16.30;98.40
2042;DHT22;1026;51.460;7.252;2023-09-30T01:45:53;16.30;98.40
2042;DHT22;1026;51.460;7.252;2023-09-30T01:48:20;16.30;98.50
2042;DHT22;1026;51.460;7.252;2023-09-30T01:50:53;16.30;98.40
2042;DHT22;1026;51.460;7.252;2023-09-30T01:53:20;16.30;98.40
2042;DHT22;1026;51.460;7.252;2023-09-30T01:55:53;16.20;98.40
2042;DHT22;1026;51.460;7.252;2023-09-30T01:58:20;16.30;98.40
2042;DHT22;1026;51.460;7.252;2023-09-30T02:00:53;16.20;98.40
2042;DHT22;1026;51.460;7.252;2023-09-30T02:03:20;16.20;98.40
2042;DHT22;1026;51.460;7.252;2023-09-30T02:05:54;16.20;98.40
2042;DHT22;1026;51.460;7.252;2023-09-30T02:08:21;16.20;98.40
2042;DHT22;1026;51.460;7.252;2023-09-30T02:10:49;16.20;98.40
2042;DHT22;1026;51.460;7.252;2023-09-30T02:13:24;16.20;98.40
2042;DHT22;1026;51.460;7.252;2023-09-30T02:15:58;16.20;98.50
2042;DHT22;1026;51.460;7.252;2023-09-30T02:18:31;16.10;98.40
2042;DHT22;1026;51.460;7.252;2023-09-30T02:21:01;16.10;98.40
2042;DHT22;1026;51.460;7.252;2023-09-30T02:23:34;16.10;98.40
2042;DHT22;1026;51.460;7.252;2023-09-30T02:26:02;16.10;98.40
2042;DHT22;1026;51.460;7.252;2023-09-30T02:28:29;16.10;98.40
2042;DHT22;1026;51.460;7.252;2023-09-30T02:31:07;16.10;98.40
2042;DHT22;1026;51.460;7.252;2023-09-30T02:33:34;16.20;98.40
2042;DHT22;1026;51.460;7.252;2023-09-30T02:36:02;16.10;98.40
2042;DHT22;1026;51.460;7.252;2023-09-30T02:38:38;16.10;98.40
2042;DHT22;1026;51.460;7.252;2023-09-30T02:41:11;16.00;98.40
2042;DHT22;1026;51.460;7.252;2023-09-30T02:43:38;16.00;98.40
2042;DHT22;1026;51.460;7.252;2023-09-30T02:46:12;16.00;98.40
2042;DHT22;1026;51.460;7.252;2023-09-30T02:48:39;16.00;98.40
2042;DHT22;1026;51.460;7.252;2023-09-30T02:51:12;16.00;98.40
2042;DHT22;1026;51.460;7.252;2023-09-30T02:53:45;16.00;98.40
2042;DHT22;1026;51.460;7.252;2023-09-30T02:56:14;16.00;98.40
2042;DHT22;1026;51.460;7.252;2023-09-30T02:58:41;16.00;98.40
2042;DHT22;1026;51.460;7.252;2023-09-30T03:01:15;16.00;98.40
2042;DHT22;1026;51.460;7.252;2023-09-30T03:03:46;16.00;98.40
2042;DHT22;1026;51.460;7.252;2023-09-30T03:06:13;16.00;98.40
2042;DHT22;1026;51.460;7.252;2023-09-30T03:08:47;15.90;98.30
2042;DHT22;1026;51.460;7.252;2023-09-30T03:11:14;15.90;98.30
2042;DHT22;1026;51.460;7.252;2023-09-30T03:13:41;15.90;98.30
2042;DHT22;1026;51.460;7.252;2023-09-30T03:16:15;15.90;98.30
2042;DHT22;1026;51.460;7.252;2023-09-30T03:18:48;15.90;98.30
2042;DHT22;1026;51.460;7.252;2023-09-30T03:21:22;15.90;98.30
2042;DHT22;1026;51.460;7.252;2023-09-30T03:23:55;15.90;98.30
2042;DHT22;1026;51.460;7.252;2023-09-30T03:26:22;15.80;98.60
2042;DHT22;1026;51.460;7.252;2023-09-30T03:28:57;15.80;98.30
2042;DHT22;1026;51.460;7.252;2023-09-30T03:31:30;15.80;98.60
2042;DHT22;1026;51.460;7.252;2023-09-30T03:33:57;15.80;98.30
2042;DHT22;1026;51.460;7.252;2023-09-30T03:36:30;15.80;98.30
2042;DHT22;1026;51.460;7.252;2023-09-30T03:39:03;15.80;98.30
2042;DHT22;1026;51.460;7.252;2023-09-30T03:41:34;15.80;98.30
2042;DHT22;1026;51.460;7.252;2023-09-30T03:44:10;15.80;98.30
2042;DHT22;1026;51.460;7.252;2023-09-30T03:46:37;15.80;98.30
2042;DHT22;1026;51.460;7.252;2023-09-30T03:49:10;15.70;98.30
2042;DHT22;1026;51.460;7.252;2023-09-30T03:51:44;15.70;98.30
2042;DHT22;1026;51.460;7.252;2023-09-30T03:54:17;15.70;98.30
2042;DHT22;1026;51.460;7.252;2023-09-30T03:56:47;15.70;98.20
2042;DHT22;1026;51.460;7.252;2023-09-30T03:59:14;15.70;98.30
2042;DHT22;1026;51.460;7.252;2023-09-30T04:01:49;15.70;98.30
2042;DHT22;1026;51.460;7.252;2023-09-30T04:04:16;15.70;98.20
2042;DHT22;1026;51.460;7.252;2023-09-30T04:06:43;15.70;98.30
2042;DHT22;1026;51.460;7.252;2023-09-30T04:09:16;15.70;98.30
2042;DHT22;1026;51.460;7.252;2023-09-30T04:11:50;15.70;98.20
2042;DHT22;1026;51.460;7.252;2023-09-30T04:14:17;15.60;98.20
2042;DHT22;1026;51.460;7.252;2023-09-30T04:16:58;15.60;98.20
2042;DHT22;1026;51.460;7.252;2023-09-30T04:19:38;15.60;98.20
2042;DHT22;1026;51.460;7.252;2023-09-30T04:22:11;15.60;98.20
2042;DHT22;1026;51.460;7.252;2023-09-30T04:24:45;15.60;98.20
2042;DHT22;1026;51.460;7.252;2023-09-30T04:27:12;15.60;98.20
2042;DHT22;1026;51.460;7.252;2023-09-30T04:29:46;15.60;98.20
2042;DHT22;1026;51.460;7.252;2023-09-30T04:32:19;15.50;98.20
2042;DHT22;1026;51.460;7.252;2023-09-30T04:34:46;15.50;98.20
2042;DHT22;1026;51.460;7.252;2023-09-30T04:37:13;15.50;98.10
2042;DHT22;1026;51.460;7.252;2023-09-30T04:39:47;15.50;98.20
2042;DHT22;1026;51.460;7.252;2023-09-30T04:42:14;15.60;98.20
2042;DHT22;1026;51.460;7.252;2023-09-30T04:44:41;15.50;98.10
2042;DHT22;1026;51.460;7.252;2023-09-30T04:47:14;15.50;98.10
2042;DHT22;1026;51.460;7.252;2023-09-30T04:49:41;15.50;98.10
2042;DHT22;1026;51.460;7.252;2023-09-30T04:52:16;15.50;98.10
2042;DHT22;1026;51.460;7.252;2023-09-30T04:54:43;15.50;98.10
2042;DHT22;1026;51.460;7.252;2023-09-30T04:57:18;15.40;98.10
2042;DHT22;1026;51.460;7.252;2023-09-30T04:59:46;15.40;98.00
2042;DHT22;1026;51.460;7.252;2023-09-30T05:02:22;15.40;98.00
2042;DHT22;1026;51.460;7.252;2023-09-30T05:04:50;15.40;98.00
2042;DHT22;1026;51.460;7.252;2023-09-30T05:07:18;15.40;98.00
2042;DHT22;1026;51.460;7.252;2023-09-30T05:09:51;15.50;98.10
2042;DHT22;1026;51.460;7.252;2023-09-30T05:12:29;15.40;98.00
2042;DHT22;1026;51.460;7.252;2023-09-30T05:14:56;15.40;98.00
2042;DHT22;1026;51.460;7.252;2023-09-30T05:17:37;15.40;98.00
2042;DHT22;1026;51.460;7.252;2023-09-30T05:20:05;15.40;98.00
2042;DHT22;1026;51.460;7.252;2023-09-30T05:22:40;15.30;98.00
2042;DHT22;1026;51.460;7.252;2023-09-30T05:25:16;15.30;98.00
2042;DHT22;1026;51.460;7.252;2023-09-30T05:27:44;15.30;98.00
2042;DHT22;1026;51.460;7.252;2023-09-30T05:30:18;15.30;98.00
2042;DHT22;1026;51.460;7.252;2023-09-30T05:32:47;15.30;98.00
2042;DHT22;1026;51.460;7.252;2023-09-30T05:35:20;15.30;98.00
2042;DHT22;1026;51.460;7.252;2023-09-30T05:37:49;15.20;98.20
2042;DHT22;1026;51.460;7.252;2023-09-30T05:40:25;15.20;98.00
2042;DHT22;1026;51.460;7.252;2023-09-30T05:42:54;15.20;98.00
2042;DHT22;1026;51.460;7.252;2023-09-30T05:45:24;15.20;98.00
2042;DHT22;1026;51.460;7.252;2023-09-30T05:48:04;15.20;97.90
2042;DHT22;1026;51.460;7.252;2023-09-30T05:50:34;15.20;98.00
2042;DHT22;1026;51.460;7.252;2023-09-30T05:53:09;15.20;98.30
2042;DHT22;1026;51.460;7.252;2023-09-30T05:55:37;15.20;98.00
2042;DHT22;1026;51.460;7.252;2023-09-30T05:58:13;15.20;98.00
2042;DHT22;1026;51.460;7.252;2023-09-30T06:00:40;15.20;98.00
2042;DHT22;1026;51.460;7.252;2023-09-30T06:03:09;15.20;98.00
2042;DHT22;1026;51.460;7.252;2023-09-30T06:05:43;15.10;97.90
2042;DHT22;1026;51.460;7.252;2023-09-30T06:08:10;15.10;97.90
2042;DHT22;1026;51.460;7.252;2023-09-30T06:10:46;15.10;98.00
2042;DHT22;1026;51.460;7.252;2023-09-30T06:13:13;15.10;98.00
2042;DHT22;1026;51.460;7.252;2023-09-30T06:15:41;15.20;98.00
2042;DHT22;1026;51.460;7.252;2023-09-30T06:18:14;15.10;98.00
2042;DHT22;1026;51.460;7.252;2023-09-30T06:21:01;15.10;98.00
2042;DHT22;1026;51.460;7.252;2023-09-30T06:23:28;15.10;98.00
2042;DHT22;1026;51.460;7.252;2023-09-30T06:26:03;15.10;98.00
2042;DHT22;1026;51.460;7.252;2023-09-30T06:28:30;15.10;98.00
2042;DHT22;1026;51.460;7.252;2023-09-30T06:30:58;15.10;98.00
2042;DHT22;1026;51.460;7.252;2023-09-30T06:33:31;15.00;98.00
2042;DHT22;1026;51.460;7.252;2023-09-30T06:35:59;15.00;98.00
2042;DHT22;1026;51.460;7.252;2023-09-30T06:38:35;15.00;98.00
2042;DHT22;1026;51.460;7.252;2023-09-30T06:41:04;15.00;98.00
2042;DHT22;1026;51.460;7.252;2023-09-30T06:43:37;15.00;98.00
2042;DHT22;1026;51.460;7.252;2023-09-30T06:46:07;15.00;98.00
2042;DHT22;1026;51.460;7.252;2023-09-30T06:48:37;15.00;98.00
2042;DHT22;1026;51.460;7.252;2023-09-30T06:51:14;15.00;98.00
2042;DHT22;1026;51.460;7.252;2023-09-30T06:53:48;15.00;98.00
2042;DHT22;1026;51.460;7.252;2023-09-30T06:56:22;15.00;98.00
2042;DHT22;1026;51.460;7.252;2023-09-30T06:58:55;15.00;98.00
2042;DHT22;1026;51.460;7.252;2023-09-30T07:01:22;15.00;98.30
2042;DHT22;1026;51.460;7.252;2023-09-30T07:03:49;15.00;98.00
2042;DHT22;1026;51.460;7.252;2023-09-30T07:06:25;14.90;98.00
2042;DHT22;1026;51.460;7.252;2023-09-30T07:08:59;15.00;98.40
2042;DHT22;1026;51.460;7.252;2023-09-30T07:11:30;14.90;98.00
2042;DHT22;1026;51.460;7.252;2023-09-30T07:14:06;14.90;98.00
2042;DHT22;1026;51.460;7.252;2023-09-30T07:16:39;14.90;98.00
2042;DHT22;1026;51.460;7.252;2023-09-30T07:19:13;14.90;98.00
2042;DHT22;1026;51.460;7.252;2023-09-30T07:21:46;14.90;98.00
2042;DHT22;1026;51.460;7.252;2023-09-30T07:24:29;14.90;98.00
2042;DHT22;1026;51.460;7.252;2023-09-30T07:27:02;14.90;98.00
2042;DHT22;1026;51.460;7.252;2023-09-30T07:29:53;14.90;98.00
2042;DHT22;1026;51.460;7.252;2023-09-30T07:32:20;14.90;98.00
2042;DHT22;1026;51.460;7.252;2023-09-30T07:34:56;14.90;98.00
2042;DHT22;1026;51.460;7.252;2023-09-30T07:37:23;14.90;98.00
2042;DHT22;1026;51.460;7.252;2023-09-30T07:39:50;14.90;98.00
2042;DHT22;1026;51.460;7.252;2023-09-30T07:42:23;14.80;98.00
2042;DHT22;1026;51.460;7.252;2023-09-30T07:44:50;14.90;98.00
2042;DHT22;1026;51.460;7.252;2023-09-30T07:47:18;14.90;98.00
2042;DHT22;1026;51.460;7.252;2023-09-30T07:49:51;14.80;98.00
2042;DHT22;1026;51.460;7.252;2023-09-30T07:52:25;14.90;98.00
2042;DHT22;1026;51.460;7.252;2023-09-30T07:54:52;14.90;98.00
2042;DHT22;1026;51.460;7.252;2023-09-30T07:57:19;14.90;98.00
2042;DHT22;1026;51.460;7.252;2023-09-30T07:59:53;14.90;98.00
2042;DHT22;1026;51.460;7.252;2023-09-30T08:02:21;14.80;98.00
2042;DHT22;1026;51.460;7.252;2023-09-30T08:04:55;14.90;98.10
2042;DHT22;1026;51.460;7.252;2023-09-30T08:07:29;14.80;98.00
2042;DHT22;1026;51.460;7.252;2023-09-30T08:09:56;14.80;98.00
2042;DHT22;1026;51.460;7.252;2023-09-30T08:12:23;14.80;98.00
2042;DHT22;1026;51.460;7.252;2023-09-30T08:14:56;14.80;98.00
2042;DHT22;1026;51.460;7.252;2023-09-30T08:17:31;14.90;98.10
2042;DHT22;1026;51.460;7.252;2023-09-30T08:20:11;14.80;99.10
2042;DHT22;1026;51.460;7.252;2023-09-30T08:22:39;14.80;98.90
2042;DHT22;1026;51.460;7.252;2023-09-30T08:25:13;14.80;98.80
2042;DHT22;1026;51.460;7.252;2023-09-30T08:27:46;14.80;98.60
2042;DHT22;1026;51.460;7.252;2023-09-30T08:30:22;14.80;98.60
2042;DHT22;1026;51.460;7.252;2023-09-30T08:32:49;14.80;98.50
2042;DHT22;1026;51.460;7.252;2023-09-30T08:35:16;14.80;98.50
2042;DHT22;1026;51.460;7.252;2023-09-30T08:37:50;14.80;98.50
2042;DHT22;1026;51.460;7.252;2023-09-30T08:40:21;14.80;98.40
2042;DHT22;1026;51.460;7.252;2023-09-30T08:42:54;14.80;98.40
2042;DHT22;1026;51.460;7.252;2023-09-30T08:45:21;14.80;98.40
2042;DHT22;1026;51.460;7.252;2023-09-30T08:47:55;14.80;98.40
2042;DHT22;1026;51.460;7.252;2023-09-30T08:50:28;14.80;98.40
2042;DHT22;1026;51.460;7.252;2023-09-30T08:52:56;14.80;98.40
2042;DHT22;1026;51.460;7.252;2023-09-30T08:55:29;14.80;98.40
2042;DHT22;1026;51.460;7.252;2023-09-30T08:57:58;14.80;98.40
2042;DHT22;1026;51.460;7.252;2023-09-30T09:00:27;14.80;98.40
2042;DHT22;1026;51.460;7.252;2023-09-30T09:03:02;14.80;98.40
2042;DHT22;1026;51.460;7.252;2023-09-30T09:05:30;14.80;98.30
2042;DHT22;1026;51.460;7.252;2023-09-30T09:08:04;14.80;98.40
2042;DHT22;1026;51.460;7.252;2023-09-30T09:10:31;14.80;98.30
2042;DHT22;1026;51.460;7.252;2023-09-30T09:12:59;14.90;98.30
2042;DHT22;1026;51.460;7.252;2023-09-30T09:15:32;14.80;98.30
2042;DHT22;1026;51.460;7.252;2023-09-30T09:18:06;14.90;98.30
2042;DHT22;1026;51.460;7.252;2023-09-30T09:20:39;14.90;98.30
2042;DHT22;1026;51.460;7.252;2023-09-30T09:23:15;14.90;98.30
2042;DHT22;1026;51.460;7.252;2023-09-30T09:25:41;14.90;98.30
2042;DHT22;1026;51.460;7.252;2023-09-30T09:28:08;14.90;98.30
2042;DHT22;1026;51.460;7.252;2023-09-30T09:30:42;14.90;98.30
2042;DHT22;1026;51.460;7.252;2023-09-30T09:33:16;14.90;98.30
2042;DHT22;1026;51.460;7.252;2023-09-30T09:35:48;14.90;98.20
2042;DHT22;1026;51.460;7.252;2023-09-30T09:38:15;14.90;98.20
2042;DHT22;1026;51.460;7.252;2023-09-30T09:40:48;14.90;98.30
2042;DHT22;1026;51.460;7.252;2023-09-30T09:43:15;14.90;98.20
2042;DHT22;1026;51.460;7.252;2023-09-30T09:45:43;15.00;98.30
2042;DHT22;1026;51.460;7.252;2023-09-30T09:48:18;14.90;98.20
2042;DHT22;1026;51.460;7.252;2023-09-30T09:50:51;15.00;98.30
2042;DHT22;1026;51.460;7.252;2023-09-30T09:53:26;15.00;98.30
2042;DHT22;1026;51.460;7.252;2023-09-30T09:56:03;14.90;98.20
2042;DHT22;1026;51.460;7.252;2023-09-30T09:58:33;14.90;98.20
2042;DHT22;1026;51.460;7.252;2023-09-30T10:01:01;14.90;98.20
2042;DHT22;1026;51.460;7.252;2023-09-30T10:03:34;15.00;98.30
2042;DHT22;1026;51.460;7.252;2023-09-30T10:06:02;15.00;98.20
2042;DHT22;1026;51.460;7.252;2023-09-30T10:08:33;15.00;98.20
2042;DHT22;1026;51.460;7.252;2023-09-30T10:11:16;15.10;98.20
2042;DHT22;1026;51.460;7.252;2023-09-30T10:13:57;15.00;98.20
2042;DHT22;1026;51.460;7.252;2023-09-30T10:16:57;15.00;98.10
2042;DHT22;1026;51.460;7.252;2023-09-30T10:19:30;15.10;98.10
2042;DHT22;1026;51.460;7.252;2023-09-30T10:22:21;15.10;98.10
2042;DHT22;1026;51.460;7.252;2023-09-30T10:28:39;15.10;98.10
2042;DHT22;1026;51.460;7.252;2023-09-30T10:31:22;15.10;98.00
2042;DHT22;1026;51.460;7.252;2023-09-30T10:34:21;15.10;98.00
2042;DHT22;1026;51.460;7.252;2023-09-30T10:36:48;15.10;98.00
2042;DHT22;1026;51.460;7.252;2023-09-30T10:39:54;15.10;98.00
2042;DHT22;1026;51.460;7.252;2023-09-30T10:42:47;15.10;98.00
2042;DHT22;1026;51.460;7.252;2023-09-30T10:45:44;15.20;98.00
2042;DHT22;1026;51.460;7.252;2023-09-30T10:48:34;15.20;98.00
2042;DHT22;1026;51.460;7.252;2023-09-30T10:51:14;15.20;98.00
2042;DHT22;1026;51.460;7.252;2023-09-30T10:53:47;15.20;98.00
2042;DHT22;1026;51.460;7.252;2023-09-30T10:56:20;15.20;98.00
2042;DHT22;1026;51.460;7.252;2023-09-30T10:58:53;15.20;98.00
2042;DHT22;1026;51.460;7.252;2023-09-30T11:01:32;15.20;97.90
2042;DHT22;1026;51.460;7.252;2023-09-30T11:04:02;15.20;97.90
2042;DHT22;1026;51.460;7.252;2023-09-30T11:06:41;15.20;97.90
2042;DHT22;1026;51.460;7.252;2023-09-30T11:09:08;15.20;97.90
2042;DHT22;1026;51.460;7.252;2023-09-30T11:11:52;15.30;97.90
2042;DHT22;1026;51.460;7.252;2023-09-30T11:14:31;15.30;97.90
2042;DHT22;1026;51.460;7.252;2023-09-30T11:17:11;15.30;97.90
2042;DHT22;1026;51.460;7.252;2023-09-30T11:19:51;15.30;97.90
2042;DHT22;1026;51.460;7.252;2023-09-30T11:22:25;15.30;97.80
2042;DHT22;1026;51.460;7.252;2023-09-30T11:24:54;15.30;97.80
2042;DHT22;1026;51.460;7.252;2023-09-30T11:27:24;15.30;97.80
2042;DHT22;1026;51.460;7.252;2023-09-30T11:29:57;15.30;97.80
2042;DHT22;1026;51.460;7.252;2023-09-30T11:32:26;15.30;97.80
2042;DHT22;1026;51.460;7.252;2023-09-30T11:34:53;15.30;97.80
2042;DHT22;1026;51.460;7.252;2023-09-30T11:37:34;15.40;97.80
2042;DHT22;1026;51.460;7.252;2023-09-30T11:40:12;15.40;97.80
2042;DHT22;1026;51.460;7.252;2023-09-30T11:42:40;15.30;97.70
2042;DHT22;1026;51.460;7.252;2023-09-30T11:45:23;15.30;97.70
2042;DHT22;1026;51.460;7.252;2023-09-30T11:47:50;15.40;97.80
2042;DHT22;1026;51.460;7.252;2023-09-30T11:50:23;15.40;97.70
2042;DHT22;1026;51.460;7.252;2023-09-30T11:52:51;15.40;97.70
2042;DHT22;1026;51.460;7.252;2023-09-30T11:55:24;15.40;97.70
2042;DHT22;1026;51.460;7.252;2023-09-30T11:57:53;15.40;97.70
2042;DHT22;1026;51.460;7.252;2023-09-30T12:00:21;15.40;97.70
2042;DHT22;1026;51.460;7.252;2023-09-30T12:02:56;15.40;97.70
2042;DHT22;1026;51.460;7.252;2023-09-30T12:05:24;15.40;97.70
2042;DHT22;1026;51.460;7.252;2023-09-30T12:07:51;15.40;97.70
2042;DHT22;1026;51.460;7.252;2023-09-30T12:10:31;15.50;97.70
2042;DHT22;1026;51.460;7.252;2023-09-30T12:13:04;15.40;97.60
2042;DHT22;1026;51.460;7.252;2023-09-30T12:15:31;15.50;97.70
2042;DHT22;1026;51.460;7.252;2023-09-30T12:18:11;15.50;97.60
2042;DHT22;1026;51.460;7.252;2023-09-30T12:20:56;15.40;97.60
2042;DHT22;1026;51.460;7.252;2023-09-30T12:23:29;15.50;97.60
2042;DHT22;1026;51.460;7.252;2023-09-30T12:25:56;15.50;97.50
2042;DHT22;1026;51.460;7.252;2023-09-30T12:28:39;15.50;97.40
2042;DHT22;1026;51.460;7.252;2023-09-30T12:31:13;15.50;97.50
2042;DHT22;1026;51.460;7.252;2023-09-30T12:33:42;15.50;97.40
2042;DHT22;1026;51.460;7.252;2023-09-30T12:36:16;15.50;97.40
2042;DHT22;1026;51.460;7.252;2023-09-30T12:38:43;15.50;97.40
2042;DHT22;1026;51.460;7.252;2023-09-30T12:41:10;15.50;97.30
2042;DHT22;1026;51.460;7.252;2023-09-30T12:43:43;15.50;97.70
2042;DHT22;1026;51.460;7.252;2023-09-30T12:46:10;15.50;97.30
2042;DHT22;1026;51.460;7.252;2023-09-30T12:48:47;15.60;97.30
2042;DHT22;1026;51.460;7.252;2023-09-30T12:51:15;15.60;97.30
2042;DHT22;1026;51.460;7.252;2023-09-30T12:53:49;15.60;97.40
2042;DHT22;1026;51.460;7.252;2023-09-30T12:56:16;15.60;97.30
2042;DHT22;1026;51.460;7.252;2023-09-30T12:58:50;15.60;97.30
2042;DHT22;1026;51.460;7.252;2023-09-30T13:01:18;15.60;97.30
2042;DHT22;1026;51.460;7.252;2023-09-30T13:03:49;15.60;97.30
2042;DHT22;1026;51.460;7.252;2023-09-30T13:06:23;15.60;97.30
2042;DHT22;1026;51.460;7.252;2023-09-30T13:08:50;15.60;97.30
2042;DHT22;1026;51.460;7.252;2023-09-30T13:11:17;15.70;97.30
2042;DHT22;1026;51.460;7.252;2023-09-30T13:13:50;15.70;97.30
2042;DHT22;1026;51.460;7.252;2023-09-30T13:16:23;15.70;97.30
2042;DHT22;1026;51.460;7.252;2023-09-30T13:19:04;15.60;97.30
2042;DHT22;1026;51.460;7.252;2023-09-30T13:21:38;15.70;97.30
2042;DHT22;1026;51.460;7.252;2023-09-30T13:24:15;15.70;97.30
2042;DHT22;1026;51.460;7.252;2023-09-30T13:26:49;15.70;97.30
2042;DHT22;1026;51.460;7.252;2023-09-30T13:29:16;15.70;97.30
2042;DHT22;1026;51.460;7.252;2023-09-30T13:31:45;15.70;97.30
2042;DHT22;1026;51.460;7.252;2023-09-30T13:34:19;15.70;97.30
2042;DHT22;1026;51.460;7.252;2023-09-30T13:36:45;15.70;97.30
2042;DHT22;1026;51.460;7.252;2023-09-30T13:39:13;15.70;97.30
2042;DHT22;1026;51.460;7.252;2023-09-30T13:41:47;15.70;97.20
2042;DHT22;1026;51.460;7.252;2023-09-30T13:44:14;15.70;97.30
2042;DHT22;1026;51.460;7.252;2023-09-30T13:46:40;15.70;97.30
2042;DHT22;1026;51.460;7.252;2023-09-30T13:49:15;15.80;97.30
2042;DHT22;1026;51.460;7.252;2023-09-30T13:51:51;15.70;97.20
2042;DHT22;1026;51.460;7.252;2023-09-30T13:54:24;15.80;97.30
2042;DHT22;1026;51.460;7.252;2023-09-30T13:56:57;15.90;97.30
2042;DHT22;1026;51.460;7.252;2023-09-30T13:59:34;16.20;94.80
2042;DHT22;1026;51.460;7.252;2023-09-30T14:02:02;16.10;95.30
2042;DHT22;1026;51.460;7.252;2023-09-30T14:04:30;16.10;95.70
2042;DHT22;1026;51.460;7.252;2023-09-30T14:07:04;16.00;95.90
2042;DHT22;1026;51.460;7.252;2023-09-30T14:09:38;16.00;96.10
2042;DHT22;1026;51.460;7.252;2023-09-30T14:12:06;16.00;95.60
2042;DHT22;1026;51.460;7.252;2023-09-30T14:14:34;16.00;96.00
2042;DHT22;1026;51.460;7.252;2023-09-30T14:17:08;16.00;96.30
2042;DHT22;1026;51.460;7.252;2023-09-30T14:19:50;16.00;96.40
2042;DHT22;1026;51.460;7.252;2023-09-30T14:22:30;16.00;96.80
2042;DHT22;1026;51.460;7.252;2023-09-30T14:25:04;16.00;96.50
2042;DHT22;1026;51.460;7.252;2023-09-30T14:27:31;16.00;96.60
2042;DHT22;1026;51.460;7.252;2023-09-30T14:30:05;16.00;96.60
2042;DHT22;1026;51.460;7.252;2023-09-30T14:32:34;16.00;96.60
2042;DHT22;1026;51.460;7.252;2023-09-30T14:35:01;16.00;96.70
2042;DHT22;1026;51.460;7.252;2023-09-30T14:37:35;16.00;96.60
2042;DHT22;1026;51.460;7.252;2023-09-30T14:40:03;16.00;96.60
2042;DHT22;1026;51.460;7.252;2023-09-30T14:42:32;16.00;96.70
2042;DHT22;1026;51.460;7.252;2023-09-30T14:45:07;16.00;96.50
2042;DHT22;1026;51.460;7.252;2023-09-30T14:47:34;16.00;95.50
2042;DHT22;1026;51.460;7.252;2023-09-30T14:50:01;16.30;93.40
2042;DHT22;1026;51.460;7.252;2023-09-30T14:52:42;16.50;92.40
2042;DHT22;1026;51.460;7.252;2023-09-30T14:55:15;16.60;91.80
2042;DHT22;1026;51.460;7.252;2023-09-30T14:57:49;16.60;91.40
2042;DHT22;1026;51.460;7.252;2023-09-30T15:00:16;16.60;90.60
2042;DHT22;1026;51.460;7.252;2023-09-30T15:02:44;16.60;90.80
2042;DHT22;1026;51.460;7.252;2023-09-30T15:05:18;16.60;91.60
2042;DHT22;1026;51.460;7.252;2023-09-30T15:07:45;16.50;91.00
2042;DHT22;1026;51.460;7.252;2023-09-30T15:10:12;16.50;92.00
2042;DHT22;1026;51.460;7.252;2023-09-30T15:12:46;16.30;92.60
2042;DHT22;1026;51.460;7.252;2023-09-30T15:15:13;16.30;92.30
2042;DHT22;1026;51.460;7.252;2023-09-30T15:17:41;16.40;91.70
2042;DHT22;1026;51.460;7.252;2023-09-30T15:20:20;16.30;92.30
2042;DHT22;1026;51.460;7.252;2023-09-30T15:22:54;16.20;92.90
2042;DHT22;1026;51.460;7.252;2023-09-30T15:25:28;16.20;93.60
2042;DHT22;1026;51.460;7.252;2023-09-30T15:27:55;16.10;93.90
2042;DHT22;1026;51.460;7.252;2023-09-30T15:30:24;16.10;94.10
2042;DHT22;1026;51.460;7.252;2023-09-30T15:33:03;16.10;94.30
2042;DHT22;1026;51.460;7.252;2023-09-30T15:35:37;16.10;94.40
2042;DHT22;1026;51.460;7.252;2023-09-30T15:38:04;16.10;94.50
2042;DHT22;1026;51.460;7.252;2023-09-30T15:40:54;16.10;94.60
2042;DHT22;1026;51.460;7.252;2023-09-30T15:43:31;16.10;94.70
2042;DHT22;1026;51.460;7.252;2023-09-30T15:46:08;16.10;94.80
2042;DHT22;1026;51.460;7.252;2023-09-30T15:48:41;16.10;94.90
2042;DHT22;1026;51.460;7.252;2023-09-30T15:51:15;16.10;95.00
2042;DHT22;1026;51.460;7.252;2023-09-30T15:53:49;16.10;95.10
2042;DHT22;1026;51.460;7.252;2023-09-30T15:56:16;16.00;95.10
2042;DHT22;1026;51.460;7.252;2023-09-30T15:58:43;16.00;95.20
2042;DHT22;1026;51.460;7.252;2023-09-30T16:01:17;16.10;95.20
2042;DHT22;1026;51.460;7.252;2023-09-30T16:03:44;16.00;95.60
2042;DHT22;1026;51.460;7.252;2023-09-30T16:06:11;16.00;95.30
2042;DHT22;1026;51.460;7.252;2023-09-30T16:08:45;16.00;95.30
2042;DHT22;1026;51.460;7.252;2023-09-30T16:11:11;16.00;95.40
2042;DHT22;1026;51.460;7.252;2023-09-30T16:13:38;16.00;95.40
2042;DHT22;1026;51.460;7.252;2023-09-30T16:16:12;16.00;95.50
2042;DHT22;1026;51.460;7.252;2023-09-30T16:18:46;16.00;95.80
2042;DHT22;1026;51.460;7.252;2023-09-30T16:21:20;16.00;95.50
2042;DHT22;1026;51.460;7.252;2023-09-30T16:23:47;16.00;95.60
2042;DHT22;1026;51.460;7.252;2023-09-30T16:26:21;16.10;95.60
2042;DHT22;1026;51.460;7.252;2023-09-30T16:28:48;16.00;95.60
2042;DHT22;1026;51.460;7.252;2023-09-30T16:31:15;16.00;95.60
2042;DHT22;1026;51.460;7.252;2023-09-30T16:33:49;16.00;95.70
2042;DHT22;1026;51.460;7.252;2023-09-30T16:36:16;16.00;95.70